Time;durP1;ratioP1;P1;durP2;ratioP2;P2;SDS_P1;SDS_P2;PMS_P1;PMS_P2;Temp;Humidity;BMP_temperature;BMP_pressure;BME280_temperature;BME280_humidity;BME280_pressure;Samples;Min_cycle;Max_cycle;Signal;HPM_P1;HPM_P2
2023/01/21 00:01:23;;;;;;;53.15;23.42;;;-0.10;99.90;;;;;;5029787;28;20102;-72
2023/01/21 00:03:49;;;;;;;51.70;22.20;;;0.80;99.90;;;;;;5057173;28;20516;-72
2023/01/21 00:06:14;;;;;;;63.40;24.85;;;-0.10;99.90;;;;;;5034964;28;20078;-72
2023/01/21 00:08:40;;;;;;;72.72;26.90;;;-0.20;99.90;;;;;;5030191;28;20589;-72
2023/01/21 00:11:08;;;;;;;68.60;25.63;;;-0.20;99.90;;;;;;5040125;28;20162;-73
2023/01/21 00:13:34;;;;;;;65.32;26.13;;;0.10;99.90;;;;;;5031684;28;20620;-73
2023/01/21 00:16:01;;;;;;;62.42;25.50;;;0.20;99.90;;;;;;5032850;28;20439;-71
2023/01/21 00:18:27;;;;;;;60.85;25.58;;;-0.30;99.90;;;;;;5038431;28;20147;-72
2023/01/21 00:20:53;;;;;;;53.97;23.17;;;0.40;99.90;;;;;;5046554;28;20162;-73
2023/01/21 00:23:18;;;;;;;53.90;23.45;;;-0.30;99.90;;;;;;5054157;28;20049;-72
2023/01/21 00:25:44;;;;;;;63.42;25.23;;;-0.30;99.90;;;;;;5033196;28;20399;-72
2023/01/21 00:28:10;;;;;;;62.63;25.65;;;0.70;99.90;;;;;;5033191;28;20463;-73
2023/01/21 00:30:36;;;;;;;59.85;24.55;;;-0.30;99.90;;;;;;5056984;28;20041;-72
2023/01/21 00:33:02;;;;;;;51.08;22.98;;;-0.40;99.90;;;;;;5022633;28;20063;-72
2023/01/21 00:35:28;;;;;;;51.58;22.08;;;-0.40;99.90;;;;;;5039532;28;20063;-72
2023/01/21 00:37:54;;;;;;;42.40;20.25;;;-0.40;99.90;;;;;;5053115;28;20045;-71
2023/01/21 00:40:21;;;;;;;49.65;21.58;;;-0.40;99.90;;;;;;5038005;28;20118;-72
2023/01/21 00:42:46;;;;;;;46.92;20.67;;;-0.40;99.90;;;;;;5057226;28;20044;-73
2023/01/21 00:45:12;;;;;;;43.42;19.45;;;-0.40;99.90;;;;;;5025719;28;20489;-73
2023/01/21 00:47:38;;;;;;;41.25;20.00;;;-0.40;99.90;;;;;;5037778;28;20143;-73
2023/01/21 00:50:05;;;;;;;40.00;19.60;;;-0.40;99.90;;;;;;5042475;28;20080;-72
2023/01/21 00:52:30;;;;;;;39.53;19.42;;;-0.40;99.90;;;;;;5035886;28;20057;-75
2023/01/21 00:54:56;;;;;;;48.83;21.60;;;-0.50;99.90;;;;;;5051267;28;20041;-74
2023/01/21 00:57:22;;;;;;;59.45;25.88;;;-0.50;99.90;;;;;;5032240;28;20052;-74
2023/01/21 00:59:47;;;;;;;59.25;24.70;;;-0.50;99.90;;;;;;5020028;28;20033;-74
2023/01/21 01:02:13;;;;;;;46.22;21.00;;;-0.60;99.90;;;;;;5023536;28;20045;-74
2023/01/21 01:04:39;;;;;;;44.70;21.13;;;-0.60;99.90;;;;;;5032899;28;20059;-74
2023/01/21 01:07:05;;;;;;;36.75;18.25;;;-0.60;99.90;;;;;;5036548;28;20061;-73
2023/01/21 01:09:31;;;;;;;42.78;20.73;;;-0.60;99.90;;;;;;5040184;28;20052;-75
2023/01/21 01:11:56;;;;;;;38.40;18.83;;;-0.60;99.90;;;;;;5034121;28;20680;-74
2023/01/21 01:14:22;;;;;;;41.45;19.42;;;-0.60;99.90;;;;;;5033873;28;20076;-74
2023/01/21 01:16:48;;;;;;;42.97;19.35;;;-0.70;99.90;;;;;;5062629;28;20828;-74
2023/01/21 01:19:14;;;;;;;39.45;18.92;;;-0.70;99.90;;;;;;5016399;28;20508;-74
2023/01/21 01:21:40;;;;;;;38.60;19.60;;;-0.70;99.90;;;;;;5059916;28;20040;-74
2023/01/21 01:24:06;;;;;;;38.45;18.48;;;-0.70;99.90;;;;;;5041764;28;20574;-74
2023/01/21 01:26:35;;;;;;;43.22;19.15;;;-0.70;99.90;;;;;;5021937;28;20075;-74
2023/01/21 01:29:05;;;;;;;35.42;18.00;;;-0.80;99.90;;;;;;5029339;28;20036;-74
2023/01/21 01:31:31;;;;;;;38.20;19.05;;;-0.80;99.90;;;;;;5051949;28;20378;-74
2023/01/21 01:33:57;;;;;;;40.42;19.30;;;-0.50;99.90;;;;;;5038399;28;20051;-74
2023/01/21 01:36:23;;;;;;;38.70;18.42;;;-0.40;99.90;;;;;;5057065;28;20044;-74
2023/01/21 01:38:50;;;;;;;37.85;19.02;;;-0.80;99.90;;;;;;5013735;28;20041;-74
2023/01/21 01:41:28;;;;;;;40.65;17.30;;;-0.80;99.90;;;;;;5034722;28;20049;-74
2023/01/21 01:44:05;;;;;;;37.63;18.75;;;-0.80;99.90;;;;;;5023120;28;20049;-74
2023/01/21 01:46:33;;;;;;;37.72;18.35;;;-0.80;99.90;;;;;;5062090;28;20055;-74
2023/01/21 01:49:10;;;;;;;42.10;18.42;;;-0.80;99.90;;;;;;5036709;28;20088;-74
2023/01/21 01:52:01;;;;;;;44.17;19.30;;;-0.90;99.90;;;;;;5038664;28;20059;-74
2023/01/21 01:54:35;;;;;;;40.83;19.73;;;-0.90;99.90;;;;;;5008939;28;20087;-75
2023/01/21 01:57:04;;;;;;;36.20;16.63;;;-0.90;99.90;;;;;;5043763;28;20037;-74
2023/01/21 01:59:31;;;;;;;36.72;17.30;;;-0.90;99.90;;;;;;5020468;28;20413;-72
2023/01/21 02:02:06;;;;;;;40.28;18.92;;;-0.90;99.90;;;;;;5017859;28;20053;-72
2023/01/21 02:04:40;;;;;;;35.53;16.85;;;-0.90;99.90;;;;;;5038262;28;20513;-72
2023/01/21 02:07:06;;;;;;;41.10;19.48;;;-0.60;99.90;;;;;;5035172;28;20084;-72
2023/01/21 02:09:32;;;;;;;38.30;18.63;;;-1.00;99.90;;;;;;5019502;28;20051;-72
2023/01/21 02:12:00;;;;;;;40.20;18.52;;;-1.00;99.90;;;;;;5032353;28;20044;-71
2023/01/21 02:14:27;;;;;;;41.65;19.05;;;-0.90;99.90;;;;;;5040189;28;20048;-71
2023/01/21 02:17:05;;;;;;;42.67;18.98;;;-0.80;99.90;;;;;;5041667;28;20669;-71
2023/01/21 02:20:08;;;;;;;37.70;18.98;;;-0.70;99.90;;;;;;5033974;28;20051;-71
2023/01/21 02:22:42;;;;;;;38.60;17.83;;;-1.00;99.90;;;;;;5060085;28;20714;-72
2023/01/21 02:25:40;;;;;;;37.92;18.80;;;-1.10;99.90;;;;;;5032280;28;20041;-72
2023/01/21 02:28:26;;;;;;;40.85;18.67;;;-1.10;99.90;;;;;;5052355;28;20102;-71
2023/01/21 02:31:27;;;;;;;36.70;17.48;;;-1.10;99.90;;;;;;5035803;28;20053;-72
2023/01/21 02:33:59;;;;;;;39.22;19.42;;;-1.10;99.90;;;;;;5049740;28;20140;-72
2023/01/21 02:36:32;;;;;;;40.67;18.77;;;-1.10;99.90;;;;;;5055921;28;20052;-72
2023/01/21 02:39:24;;;;;;;38.38;18.58;;;-1.20;99.90;;;;;;5020802;28;20114;-72
2023/01/21 02:42:05;;;;;;;44.25;18.77;;;-1.20;99.90;;;;;;5022087;28;20065;-72
2023/01/21 02:44:41;;;;;;;42.90;19.07;;;-1.00;99.90;;;;;;5027097;28;20048;-72
2023/01/21 02:47:10;;;;;;;38.40;18.17;;;-1.20;99.90;;;;;;5015291;28;20094;-73
2023/01/21 02:49:41;;;;;;;42.25;19.20;;;-1.20;99.90;;;;;;5059499;28;20041;-73
2023/01/21 02:52:07;;;;;;;45.00;19.98;;;-1.20;99.90;;;;;;5032835;28;20828;-72
2023/01/21 02:54:38;;;;;;;44.03;19.27;;;-1.10;99.90;;;;;;5038017;28;20076;-73
2023/01/21 02:57:14;;;;;;;38.15;19.38;;;-1.20;99.90;;;;;;5040384;28;20057;-72
2023/01/21 02:59:46;;;;;;;40.58;19.67;;;-1.20;99.90;;;;;;5052612;28;20071;-72
2023/01/21 03:02:38;;;;;;;40.63;19.80;;;-1.20;99.90;;;;;;5044202;28;20083;-72
2023/01/21 03:05:28;;;;;;;40.88;18.38;;;-1.20;99.90;;;;;;5016176;28;20628;-73
2023/01/21 03:08:03;;;;;;;30.67;15.40;;;-1.20;99.90;;;;;;5057758;28;20052;-73
2023/01/21 03:10:41;;;;;;;42.78;18.67;;;-1.20;99.90;;;;;;5057945;28;20063;-73
2023/01/21 03:16:55;;;;;;;46.22;21.42;;;-1.20;99.90;;;;;;5031409;28;20187;-73
2023/01/21 03:18:53;;;;;;;42.10;19.42;;;-1.20;99.90;;;;;;5051718;28;20064;-73
2023/01/21 03:21:24;;;;;;;40.80;19.75;;;-1.20;99.90;;;;;;5032698;28;20045;-73
2023/01/21 03:23:52;;;;;;;45.20;20.85;;;-1.30;99.90;;;;;;5036998;28;20040;-73
2023/01/21 03:26:27;;;;;;;40.42;18.90;;;-0.70;99.90;;;;;;5036732;28;20037;-73
2023/01/21 03:28:57;;;;;;;37.40;18.42;;;-1.30;99.90;;;;;;5020434;28;20045;-73
2023/01/21 03:31:28;;;;;;;44.85;19.98;;;-1.30;99.90;;;;;;5021666;28;20049;-72
2023/01/21 03:33:58;;;;;;;39.33;18.27;;;-0.60;99.90;;;;;;5019248;28;20052;-73
2023/01/21 03:36:50;;;;;;;42.00;20.88;;;-0.60;99.90;;;;;;5032388;28;20052;-72
2023/01/21 03:39:46;;;;;;;49.28;20.88;;;-1.30;99.90;;;;;;5033625;28;20028;-73
2023/01/21 03:42:12;;;;;;;46.67;21.73;;;-1.30;99.90;;;;;;5030967;28;20060;-73
2023/01/21 03:44:39;;;;;;;43.13;20.15;;;-1.40;99.90;;;;;;5034376;28;20052;-73
2023/01/21 03:47:04;;;;;;;44.35;20.90;;;-1.20;99.90;;;;;;5055647;28;20779;-73
2023/01/21 03:49:36;;;;;;;47.58;21.65;;;-1.40;99.90;;;;;;5023381;28;20045;-72
2023/01/21 03:52:04;;;;;;;41.58;19.65;;;-1.20;99.90;;;;;;5031899;28;20041;-73
2023/01/21 03:54:30;;;;;;;49.97;22.25;;;-1.00;99.90;;;;;;5033646;28;21002;-73
2023/01/21 03:56:56;;;;;;;53.97;22.63;;;-1.10;99.90;;;;;;5036899;28;20036;-73
2023/01/21 03:59:22;;;;;;;50.90;23.83;;;-1.30;99.90;;;;;;5025802;28;20502;-73
2023/01/21 04:01:48;;;;;;;51.00;24.00;;;-0.50;99.90;;;;;;5050174;28;20102;-73
2023/01/21 04:04:13;;;;;;;55.88;24.65;;;-1.00;99.90;;;;;;5031816;28;20116;-73
2023/01/21 04:06:39;;;;;;;45.72;23.15;;;-0.80;99.90;;;;;;5038176;28;20094;-73
2023/01/21 04:09:06;;;;;;;52.38;24.67;;;-1.30;99.90;;;;;;5035965;28;20048;-72
2023/01/21 04:11:33;;;;;;;54.58;24.80;;;-1.20;99.90;;;;;;5036527;28;20141;-73
2023/01/21 04:13:59;;;;;;;53.33;23.23;;;-1.20;99.90;;;;;;5034161;28;20053;-73
2023/01/21 04:16:25;;;;;;;53.60;24.98;;;-0.70;99.90;;;;;;5030700;28;20056;-73
2023/01/21 04:18:51;;;;;;;53.38;23.17;;;-1.20;99.90;;;;;;5038192;28;20036;-74
2023/01/21 04:21:16;;;;;;;52.92;23.40;;;-1.20;99.90;;;;;;5058852;28;20056;-73
2023/01/21 04:23:42;;;;;;;56.13;25.27;;;-1.20;99.90;;;;;;5035638;28;20045;-73
2023/01/21 04:26:08;;;;;;;54.53;24.33;;;-1.10;99.90;;;;;;5030639;28;20072;-73
2023/01/21 04:28:34;;;;;;;60.22;27.00;;;-1.10;99.90;;;;;;5028525;28;20041;-74
2023/01/21 04:30:59;;;;;;;48.55;22.30;;;-1.10;99.90;;;;;;5036733;28;20040;-72
2023/01/21 04:33:25;;;;;;;48.45;22.88;;;-1.10;99.90;;;;;;5034531;28;20504;-73
2023/01/21 04:35:56;;;;;;;51.35;24.75;;;-1.10;99.90;;;;;;5034488;28;20049;-73
2023/01/21 04:38:21;;;;;;;51.55;24.05;;;-1.10;99.90;;;;;;5043056;28;20581;-73
2023/01/21 04:40:47;;;;;;;53.90;24.52;;;-1.10;99.90;;;;;;5054770;28;20051;-73
2023/01/21 04:43:13;;;;;;;55.40;23.95;;;-0.60;99.90;;;;;;5055558;28;20512;-73
2023/01/21 04:45:38;;;;;;;57.17;25.88;;;-1.00;99.90;;;;;;5050891;28;20044;-73
2023/01/21 04:48:04;;;;;;;50.65;25.75;;;-1.00;99.90;;;;;;5042505;28;20048;-73
2023/01/21 04:50:30;;;;;;;54.08;25.25;;;-1.00;99.90;;;;;;5033098;28;20504;-73
2023/01/21 04:52:56;;;;;;;59.50;26.55;;;-1.00;99.90;;;;;;5033887;28;20036;-73
2023/01/21 04:55:21;;;;;;;57.22;25.88;;;-1.00;99.90;;;;;;5038904;28;20499;-74
2023/01/21 04:57:47;;;;;;;56.28;27.42;;;-1.00;99.90;;;;;;5014750;28;20608;-73
2023/01/21 05:00:13;;;;;;;52.33;25.88;;;-1.00;99.90;;;;;;5014668;28;20418;-73
2023/01/21 05:02:39;;;;;;;53.40;25.08;;;-1.00;99.90;;;;;;5031270;28;20049;-72
2023/01/21 05:05:05;;;;;;;55.90;26.10;;;-0.60;99.90;;;;;;5046483;28;20039;-73
2023/01/21 05:07:31;;;;;;;63.88;26.95;;;-0.90;99.90;;;;;;5019279;28;20045;-73
2023/01/21 05:09:57;;;;;;;53.17;24.90;;;-0.90;99.90;;;;;;5033402;28;20060;-73
2023/01/21 05:12:23;;;;;;;53.50;24.30;;;-0.90;99.90;;;;;;5048767;28;20049;-73
2023/01/21 05:14:53;;;;;;;54.25;26.45;;;-0.10;99.90;;;;;;5034817;28;20056;-72
2023/01/21 05:17:19;;;;;;;57.58;25.35;;;-1.30;99.90;;;;;;5020023;28;20118;-73
2023/01/21 05:19:45;;;;;;;56.97;24.77;;;-0.40;99.90;;;;;;5018700;28;20132;-73
2023/01/21 05:22:11;;;;;;;56.13;24.95;;;-0.80;99.90;;;;;;5020064;28;20047;-73
2023/01/21 05:24:36;;;;;;;53.05;24.08;;;-0.80;99.90;;;;;;5052956;28;20049;-73
2023/01/21 05:27:02;;;;;;;57.00;26.50;;;-0.80;99.90;;;;;;5019621;28;20094;-73
2023/01/21 05:29:28;;;;;;;54.05;25.95;;;-0.80;99.90;;;;;;5040537;28;20151;-73
2023/01/21 05:31:54;;;;;;;53.97;25.05;;;-0.80;99.90;;;;;;5048293;28;20102;-73
2023/01/21 05:34:20;;;;;;;57.35;24.75;;;-0.80;99.90;;;;;;5053130;28;20048;-73
2023/01/21 05:36:46;;;;;;;57.50;25.55;;;-0.80;99.90;;;;;;5041691;28;20041;-72
2023/01/21 05:39:11;;;;;;;52.70;25.30;;;-0.80;99.90;;;;;;5043806;28;20040;-73
2023/01/21 05:41:37;;;;;;;51.03;24.33;;;-0.80;99.90;;;;;;5061184;28;20037;-72
2023/01/21 05:44:03;;;;;;;52.08;24.17;;;0.00;99.90;;;;;;5037086;28;20482;-71
2023/01/21 05:46:32;;;;;;;59.55;25.63;;;-0.80;99.90;;;;;;5033854;28;20114;-72
2023/01/21 05:48:57;;;;;;;56.75;25.15;;;-0.70;99.90;;;;;;5024208;28;20044;-72
2023/01/21 05:51:23;;;;;;;54.38;25.00;;;-0.50;99.90;;;;;;5033104;28;20106;-73
2023/01/21 05:53:49;;;;;;;54.33;24.02;;;-0.80;99.90;;;;;;5036055;28;20517;-72
2023/01/21 05:56:14;;;;;;;52.20;24.33;;;-0.80;99.90;;;;;;5028620;28;20037;-72
2023/01/21 05:58:40;;;;;;;52.15;25.13;;;-0.80;99.90;;;;;;5037834;28;20782;-73
2023/01/21 06:01:06;;;;;;;52.45;23.60;;;-0.80;99.90;;;;;;5028168;28;20052;-72
2023/01/21 06:03:32;;;;;;;54.92;25.08;;;-0.80;99.90;;;;;;5023392;28;20052;-72
2023/01/21 06:05:57;;;;;;;49.10;23.45;;;-0.80;99.90;;;;;;5041276;28;20123;-73
2023/01/21 06:08:23;;;;;;;53.25;24.98;;;-0.80;99.90;;;;;;5056084;28;20049;-72
2023/01/21 06:10:49;;;;;;;57.03;24.02;;;-0.80;99.90;;;;;;5038360;28;20041;-73
2023/01/21 06:13:15;;;;;;;49.80;23.98;;;-0.80;99.90;;;;;;5042327;28;20060;-72
2023/01/21 06:15:41;;;;;;;54.92;25.10;;;-0.80;99.90;;;;;;5037158;28;20053;-72
2023/01/21 06:18:07;;;;;;;51.00;23.83;;;-0.90;99.90;;;;;;5040683;28;20063;-73
2023/01/21 06:20:33;;;;;;;51.15;24.48;;;-0.80;99.90;;;;;;5053946;28;20054;-72
2023/01/21 06:23:01;;;;;;;51.20;23.77;;;-0.80;99.90;;;;;;5023791;28;20562;-72
2023/01/21 06:25:27;;;;;;;54.38;24.25;;;-0.80;99.90;;;;;;5035156;28;20106;-72
2023/01/21 06:27:56;;;;;;;56.13;24.02;;;-0.40;99.90;;;;;;5051135;28;20047;-72
2023/01/21 06:30:24;;;;;;;49.55;23.00;;;-0.90;99.90;;;;;;5046590;28;20056;-72
2023/01/21 06:32:50;;;;;;;53.97;24.58;;;-0.90;99.90;;;;;;5013878;28;20092;-72
2023/01/21 06:35:16;;;;;;;48.42;22.60;;;-0.90;99.90;;;;;;5054201;28;20043;-72
2023/01/21 06:37:44;;;;;;;52.00;23.80;;;-0.90;99.90;;;;;;5039156;28;20722;-72
2023/01/21 06:40:10;;;;;;;57.75;25.30;;;-0.90;99.90;;;;;;5023378;28;20037;-73
2023/01/21 06:42:36;;;;;;;49.95;23.52;;;-0.90;99.90;;;;;;5037576;28;20040;-72
2023/01/21 06:45:02;;;;;;;54.65;24.92;;;-0.90;99.90;;;;;;5031532;28;20110;-73
2023/01/21 06:47:28;;;;;;;48.50;22.75;;;-0.90;99.90;;;;;;5045212;28;20048;-72
2023/01/21 06:49:54;;;;;;;49.53;23.55;;;-0.90;99.90;;;;;;5017814;28;20060;-72
2023/01/21 06:52:21;;;;;;;50.50;23.42;;;-1.00;99.90;;;;;;5012212;28;20541;-73
2023/01/21 06:54:47;;;;;;;54.47;24.33;;;-1.00;99.90;;;;;;5035973;28;20041;-73
2023/01/21 06:57:13;;;;;;;50.92;24.75;;;-1.00;99.90;;;;;;5031183;28;20037;-73
2023/01/21 06:59:39;;;;;;;54.42;23.88;;;-1.00;99.90;;;;;;5011010;28;20052;-72
2023/01/21 07:02:06;;;;;;;54.55;24.85;;;-1.10;99.90;;;;;;5026494;28;20049;-72
2023/01/21 07:04:32;;;;;;;56.58;27.08;;;-1.10;99.90;;;;;;5051528;28;20048;-73
2023/01/21 07:06:57;;;;;;;59.58;25.95;;;-1.10;99.90;;;;;;5054720;28;20039;-73
2023/01/21 07:09:23;;;;;;;57.75;26.27;;;-1.10;99.90;;;;;;5037883;28;20139;-72
2023/01/21 07:11:49;;;;;;;58.05;26.98;;;-1.20;99.90;;;;;;5035362;28;20144;-72
2023/01/21 07:14:15;;;;;;;56.40;26.05;;;-1.20;99.90;;;;;;5052732;28;20450;-74
2023/01/21 07:16:40;;;;;;;55.42;25.52;;;-1.20;99.90;;;;;;5021045;28;20073;-74
2023/01/21 07:19:06;;;;;;;62.10;28.85;;;-1.20;99.90;;;;;;5034676;28;20865;-74
2023/01/21 07:21:32;;;;;;;56.28;25.92;;;-1.20;99.90;;;;;;5030225;28;20139;-74
2023/01/21 07:23:59;;;;;;;58.40;26.42;;;-1.20;99.90;;;;;;5031660;28;20442;-74
2023/01/21 07:26:25;;;;;;;52.88;24.23;;;-1.20;99.90;;;;;;5020299;28;20123;-74
2023/01/21 07:28:51;;;;;;;51.88;24.17;;;-1.20;99.90;;;;;;5032194;28;20581;-75
2023/01/21 07:31:17;;;;;;;47.58;23.30;;;-1.20;99.90;;;;;;5056633;28;20356;-75
2023/01/21 07:33:42;;;;;;;55.08;25.10;;;-1.20;99.90;;;;;;5031616;28;20697;-75
2023/01/21 07:36:08;;;;;;;53.28;25.20;;;-1.30;99.90;;;;;;5013273;28;20137;-75
2023/01/21 07:38:34;;;;;;;56.53;25.67;;;-1.30;99.90;;;;;;5015041;28;20092;-74
2023/01/21 07:40:59;;;;;;;54.28;25.58;;;-1.30;99.90;;;;;;5036289;28;20049;-74
2023/01/21 07:43:27;;;;;;;58.30;26.92;;;-1.20;99.90;;;;;;5046070;28;20044;-74
2023/01/21 07:45:53;;;;;;;54.05;26.17;;;-1.30;99.90;;;;;;5027214;28;21347;-75
2023/01/21 07:48:20;;;;;;;55.22;26.13;;;-1.30;99.90;;;;;;5030441;28;20056;-74
2023/01/21 07:50:46;;;;;;;53.13;25.80;;;-1.30;99.90;;;;;;5034189;28;20118;-75
2023/01/21 07:53:12;;;;;;;59.00;25.35;;;-1.30;99.90;;;;;;5054942;28;20235;-75
2023/01/21 07:55:38;;;;;;;52.47;25.77;;;-1.30;99.90;;;;;;5036856;28;20048;-74
2023/01/21 07:58:03;;;;;;;56.13;25.50;;;-1.30;99.90;;;;;;5034372;28;20041;-74
2023/01/21 08:00:29;;;;;;;53.75;26.17;;;-1.40;99.90;;;;;;5014284;28;20036;-75
2023/01/21 08:02:56;;;;;;;53.42;26.90;;;-1.40;99.90;;;;;;5019072;28;20483;-75
2023/01/21 08:05:23;;;;;;;56.22;25.77;;;-1.00;99.90;;;;;;5037812;28;20044;-75
2023/01/21 08:07:50;;;;;;;56.90;27.35;;;-1.40;99.90;;;;;;5050186;28;20072;-74
2023/01/21 08:10:17;;;;;;;51.38;24.48;;;-1.40;99.90;;;;;;5037769;28;20511;-74
2023/01/21 08:12:43;;;;;;;54.40;26.02;;;-1.40;99.90;;;;;;5033822;28;20052;-74
2023/01/21 08:15:10;;;;;;;52.72;25.17;;;-1.40;99.90;;;;;;5011563;28;20600;-74
2023/01/21 08:17:41;;;;;;;54.20;24.95;;;-1.40;99.90;;;;;;5044811;28;20045;-74
2023/01/21 08:20:10;;;;;;;50.55;23.27;;;-1.00;99.90;;;;;;5032353;28;20079;-74
2023/01/21 08:22:36;;;;;;;50.85;24.20;;;-1.40;99.90;;;;;;5031537;28;20053;-74
2023/01/21 08:25:04;;;;;;;50.00;24.17;;;-1.10;99.90;;;;;;5015563;28;20131;-75
2023/01/21 08:27:30;;;;;;;50.92;23.90;;;-1.40;99.90;;;;;;5049793;28;20143;-74
2023/01/21 08:29:56;;;;;;;50.65;23.27;;;-1.40;99.90;;;;;;5019203;28;20041;-74
2023/01/21 08:32:22;;;;;;;50.22;23.60;;;-1.40;99.90;;;;;;5016814;28;20118;-74
2023/01/21 08:34:49;;;;;;;53.38;24.55;;;-1.30;99.90;;;;;;5033516;28;20033;-75
2023/01/21 08:37:15;;;;;;;49.53;24.05;;;-1.30;99.90;;;;;;5030074;28;20045;-74
2023/01/21 08:39:41;;;;;;;55.47;24.98;;;-1.30;99.90;;;;;;5015814;28;20033;-74
2023/01/21 08:42:06;;;;;;;53.83;26.27;;;-1.30;99.90;;;;;;5049472;28;20033;-75
2023/01/21 08:44:34;;;;;;;53.72;25.60;;;-1.20;99.90;;;;;;5029674;28;20044;-74
2023/01/21 08:47:03;;;;;;;52.15;25.05;;;-0.80;99.90;;;;;;5032733;28;20630;-74
2023/01/21 08:49:29;;;;;;;64.43;26.90;;;-1.20;99.90;;;;;;5032135;28;20040;-74
2023/01/21 08:51:55;;;;;;;53.83;25.95;;;-1.20;99.90;;;;;;5015719;28;20068;-74
2023/01/21 08:54:21;;;;;;;61.03;27.23;;;-1.10;99.90;;;;;;5050107;28;20222;-75
2023/01/21 08:56:47;;;;;;;54.85;26.85;;;-1.10;99.90;;;;;;5027883;28;20745;-75
2023/01/21 08:59:12;;;;;;;66.35;27.52;;;-1.10;99.90;;;;;;5012492;28;20167;-73
2023/01/21 09:01:39;;;;;;;56.08;25.52;;;-1.10;99.90;;;;;;5019252;28;20094;-74
2023/01/21 09:04:06;;;;;;;57.53;27.17;;;-1.00;99.90;;;;;;5016980;28;20819;-74
2023/01/21 09:06:32;;;;;;;59.88;27.33;;;-0.60;99.90;;;;;;5020296;28;20095;-74
2023/01/21 09:08:58;;;;;;;56.97;27.40;;;-1.00;99.90;;;;;;5036481;28;20375;-73
2023/01/21 09:11:25;;;;;;;54.63;26.35;;;-1.00;99.90;;;;;;5020309;28;20064;-74
2023/01/21 09:13:51;;;;;;;55.92;26.42;;;-0.90;99.90;;;;;;5057026;28;20083;-74
2023/01/21 09:16:21;;;;;;;55.35;25.38;;;-0.90;99.90;;;;;;5039162;28;20702;-74
2023/01/21 09:18:47;;;;;;;52.08;24.75;;;-0.90;99.90;;;;;;5041263;28;20036;-75
2023/01/21 09:21:14;;;;;;;55.80;26.58;;;-0.90;99.90;;;;;;5035171;28;20514;-75
2023/01/21 09:23:40;;;;;;;59.97;26.88;;;-0.70;99.90;;;;;;5041903;28;20070;-74
2023/01/21 09:26:14;;;;;;;53.78;24.77;;;-0.50;99.90;;;;;;5039029;28;20060;-75
2023/01/21 09:28:43;;;;;;;57.20;26.25;;;-0.80;99.90;;;;;;5054539;28;20063;-74
2023/01/21 09:31:12;;;;;;;56.88;25.27;;;-0.80;99.90;;;;;;5040680;28;20127;-74
2023/01/21 09:33:40;;;;;;;60.88;26.63;;;-0.70;99.90;;;;;;5024062;28;20067;-75
2023/01/21 09:36:10;;;;;;;55.65;26.13;;;-0.70;99.90;;;;;;5042931;28;20500;-74
2023/01/21 09:38:35;;;;;;;58.25;27.27;;;-0.70;99.90;;;;;;5026701;28;20410;-75
2023/01/21 09:41:37;;;;;;;55.17;26.10;;;-0.20;99.90;;;;;;5038545;28;20048;-75
2023/01/21 09:44:13;;;;;;;60.05;26.92;;;-0.60;99.90;;;;;;5011127;28;20143;-75
2023/01/21 09:47:17;;;;;;;60.97;29.10;;;-0.50;99.90;;;;;;5033660;28;20062;-74
2023/01/21 09:49:47;;;;;;;60.83;25.20;;;-0.50;99.90;;;;;;4994531;28;20083;-74
2023/01/21 09:52:29;;;;;;;59.53;29.13;;;-0.40;99.90;;;;;;5047092;28;20052;-75
2023/01/21 09:54:56;;;;;;;62.72;26.90;;;-0.40;99.90;;;;;;5039666;28;20059;-74
2023/01/21 09:57:30;;;;;;;61.25;28.10;;;0.50;99.90;;;;;;5037575;28;20048;-74
2023/01/21 10:00:14;;;;;;;59.28;27.50;;;-0.30;99.90;;;;;;5043888;28;20052;-74
2023/01/21 10:02:50;;;;;;;60.88;27.98;;;-0.30;99.90;;;;;;5042564;28;20032;-74
2023/01/21 10:05:16;;;;;;;54.28;26.60;;;-0.30;99.90;;;;;;5038665;28;20048;-74
2023/01/21 10:07:58;;;;;;;62.58;27.15;;;-0.10;99.90;;;;;;5037263;28;20113;-74
2023/01/21 10:10:51;;;;;;;59.17;25.77;;;-0.20;99.90;;;;;;5048617;28;20470;-74
2023/01/21 10:13:36;;;;;;;59.67;27.15;;;-0.10;99.90;;;;;;5004599;28;20049;-74
2023/01/21 10:16:26;;;;;;;59.10;25.45;;;-0.10;99.90;;;;;;5012868;28;20041;-74
2023/01/21 10:18:54;;;;;;;59.03;26.70;;;-0.10;99.90;;;;;;4994886;28;20057;-74
2023/01/21 10:21:36;;;;;;;60.47;26.60;;;0.00;99.90;;;;;;5027009;28;20494;-73
2023/01/21 10:24:17;;;;;;;55.88;25.48;;;0.00;99.90;;;;;;5007376;28;20057;-72
2023/01/21 10:26:45;;;;;;;53.40;24.98;;;0.00;99.90;;;;;;5028375;28;20060;-73
2023/01/21 10:29:16;;;;;;;57.78;26.00;;;0.10;99.90;;;;;;5018741;28;20052;-73
2023/01/21 10:31:50;;;;;;;57.00;24.60;;;0.10;99.90;;;;;;5014248;28;20517;-73
2023/01/21 10:34:19;;;;;;;55.30;25.60;;;0.20;99.90;;;;;;5015294;28;20103;-73
2023/01/21 10:37:23;;;;;;;59.20;27.08;;;0.30;99.90;;;;;;5014971;28;20603;-73
2023/01/21 10:39:55;;;;;;;53.60;23.73;;;0.30;99.90;;;;;;5032182;28;20064;-74
2023/01/21 10:42:42;;;;;;;52.95;25.23;;;0.30;99.90;;;;;;5016683;28;20125;-73
2023/01/21 10:45:29;;;;;;;50.42;23.90;;;0.30;99.90;;;;;;5010508;28;20041;-73
2023/01/21 10:48:21;;;;;;;51.20;23.50;;;0.40;99.90;;;;;;5000392;28;20111;-73
2023/01/21 10:51:14;;;;;;;54.40;24.42;;;0.40;99.90;;;;;;5013988;28;20523;-73
2023/01/21 10:53:44;;;;;;;44.50;21.45;;;0.50;99.90;;;;;;4997864;28;20053;-73
2023/01/21 10:56:43;;;;;;;54.60;23.42;;;0.60;99.90;;;;;;5000569;28;20068;-73
2023/01/21 10:59:13;;;;;;;53.22;24.08;;;0.60;99.90;;;;;;5018212;28;20042;-73
2023/01/21 11:01:43;;;;;;;50.58;24.30;;;0.60;99.90;;;;;;5015975;28;20038;-73
2023/01/21 11:04:21;;;;;;;58.75;26.65;;;0.70;99.90;;;;;;5013878;28;20434;-73
2023/01/21 11:06:55;;;;;;;49.55;24.15;;;0.70;99.90;;;;;;5017344;28;20136;-74
2023/01/21 11:09:24;;;;;;;46.60;22.70;;;0.80;99.90;;;;;;5007302;28;20659;-74
2023/01/21 11:11:50;;;;;;;51.95;24.85;;;0.80;99.90;;;;;;5028451;28;20049;-74
2023/01/21 11:14:15;;;;;;;54.55;25.73;;;0.90;99.90;;;;;;5055581;28;20049;-74
2023/01/21 11:16:45;;;;;;;59.83;28.05;;;0.90;99.90;;;;;;5039553;28;20048;-73
2023/01/21 11:19:15;;;;;;;48.10;23.50;;;1.10;99.90;;;;;;5059913;28;20055;-74
2023/01/21 11:22:18;;;;;;;43.08;22.42;;;1.00;99.90;;;;;;5038136;28;20060;-73
2023/01/21 11:24:47;;;;;;;47.65;23.08;;;1.00;99.90;;;;;;5034034;28;20405;-73
2023/01/21 11:27:36;;;;;;;43.33;20.17;;;1.60;99.90;;;;;;5042330;28;20240;-73
2023/01/21 11:30:03;;;;;;;43.38;21.42;;;1.20;99.90;;;;;;5040627;28;20052;-73
2023/01/21 11:32:30;;;;;;;38.72;19.25;;;1.20;99.90;;;;;;5024427;28;20063;-74
2023/01/21 11:35:02;;;;;;;41.95;21.15;;;1.30;99.90;;;;;;5056871;28;20067;-74
2023/01/21 11:37:30;;;;;;;42.95;20.65;;;1.30;99.90;;;;;;5039438;28;20040;-74
2023/01/21 11:40:03;;;;;;;42.30;22.80;;;1.40;99.90;;;;;;5021216;28;20079;-74
2023/01/21 11:42:30;;;;;;;40.50;20.48;;;1.90;99.90;;;;;;5035840;28;20139;-74
2023/01/21 11:45:03;;;;;;;43.10;22.10;;;1.50;99.90;;;;;;5057248;28;20035;-73
2023/01/21 11:47:46;;;;;;;40.83;21.98;;;1.60;99.90;;;;;;5035646;28;20354;-74
2023/01/21 11:50:12;;;;;;;42.78;21.80;;;1.60;99.90;;;;;;5022476;28;20127;-73
2023/01/21 11:52:38;;;;;;;44.22;20.98;;;2.40;99.90;;;;;;5019079;28;20153;-73
2023/01/21 11:55:21;;;;;;;43.15;20.02;;;1.70;99.90;;;;;;5037410;28;20044;-73
2023/01/21 11:57:54;;;;;;;38.95;20.95;;;1.80;99.90;;;;;;5038882;28;20485;-74
2023/01/21 12:00:23;;;;;;;38.85;19.92;;;1.80;99.90;;;;;;5037112;28;20126;-74
2023/01/21 12:03:00;;;;;;;33.80;18.65;;;1.90;99.90;;;;;;5017308;28;20056;-74
2023/01/21 12:05:30;;;;;;;38.95;18.80;;;2.00;99.90;;;;;;5034208;28;20109;-74
2023/01/21 12:08:00;;;;;;;36.47;18.92;;;1.90;99.90;;;;;;5040496;28;20040;-74
2023/01/21 12:10:31;;;;;;;31.08;16.83;;;2.00;99.90;;;;;;5034233;28;20123;-73
2023/01/21 12:13:11;;;;;;;37.05;18.30;;;2.10;99.90;;;;;;5056147;28;20088;-73
2023/01/21 12:15:51;;;;;;;35.75;16.83;;;2.00;99.90;;;;;;5035873;28;20059;-74
2023/01/21 12:18:26;;;;;;;28.60;15.40;;;2.10;99.90;;;;;;5035221;28;20187;-74
2023/01/21 12:21:04;;;;;;;31.00;16.27;;;2.10;99.90;;;;;;5041124;28;20397;-72
2023/01/21 12:23:41;;;;;;;28.38;16.33;;;2.10;99.90;;;;;;5058498;28;20040;-73
2023/01/21 12:26:16;;;;;;;31.25;15.70;;;2.20;99.90;;;;;;5020803;28;20041;-72
2023/01/21 12:29:18;;;;;;;28.10;15.23;;;2.30;99.90;;;;;;5056551;28;20048;-72
2023/01/21 12:32:04;;;;;;;25.67;14.18;;;2.60;99.90;;;;;;4989165;28;20038;-72
2023/01/21 12:34:39;;;;;;;26.80;15.27;;;2.30;99.90;;;;;;5054983;28;20045;-72
2023/01/21 12:37:10;;;;;;;24.40;13.80;;;2.30;99.90;;;;;;5060142;28;20048;-72
2023/01/21 12:39:36;;;;;;;;;;;2.40;99.90;;;;;;5040045;28;20124;-72
2023/01/21 12:42:13;;;;;;;22.25;12.35;;;2.50;99.90;;;;;;5039883;28;19981;-73
2023/01/21 12:44:51;;;;;;;20.45;11.50;;;2.50;99.90;;;;;;5063746;28;20095;-73
2023/01/21 12:47:43;;;;;;;21.33;11.60;;;2.50;99.90;;;;;;5043147;28;20149;-72